sensor_id;sensor_type;location;lat;lon;timestamp;P1;durP1;ratioP1;P2;durP2;ratioP2
12956;SDS011;6543;48.836;10.092;2023-07-28T00:01:51;2.93;;;2.63;;
12956;SDS011;6543;48.836;10.092;2023-07-28T00:04:18;4.03;;;2.53;;
12956;SDS011;6543;48.836;10.092;2023-07-28T00:06:45;5.93;;;3.57;;
12956;SDS011;6543;48.836;10.092;2023-07-28T00:09:12;5.50;;;3.33;;
12956;SDS011;6543;48.836;10.092;2023-07-28T00:11:39;5.47;;;3.00;;
12956;SDS011;6543;48.836;10.092;2023-07-28T00:14:05;3.13;;;2.83;;
12956;SDS011;6543;48.836;10.092;2023-07-28T00:16:32;7.43;;;2.60;;
12956;SDS011;6543;48.836;10.092;2023-07-28T00:19:00;4.37;;;2.50;;
12956;SDS011;6543;48.836;10.092;2023-07-28T00:21:27;2.47;;;1.90;;
12956;SDS011;6543;48.836;10.092;2023-07-28T00:23:54;3.77;;;2.60;;
12956;SDS011;6543;48.836;10.092;2023-07-28T00:26:21;3.67;;;2.57;;
12956;SDS011;6543;48.836;10.092;2023-07-28T00:28:48;6.13;;;2.20;;
12956;SDS011;6543;48.836;10.092;2023-07-28T00:31:15;3.13;;;2.70;;
12956;SDS011;6543;48.836;10.092;2023-07-28T00:33:41;6.10;;;2.60;;
12956;SDS011;6543;48.836;10.092;2023-07-28T00:36:10;4.07;;;2.77;;
12956;SDS011;6543;48.836;10.092;2023-07-28T00:38:36;4.07;;;2.60;;
12956;SDS011;6543;48.836;10.092;2023-07-28T00:41:03;5.40;;;2.60;;
12956;SDS011;6543;48.836;10.092;2023-07-28T00:43:30;4.93;;;2.27;;
12956;SDS011;6543;48.836;10.092;2023-07-28T00:45:57;2.60;;;1.80;;
12956;SDS011;6543;48.836;10.092;2023-07-28T00:48:24;3.00;;;2.27;;
12956;SDS011;6543;48.836;10.092;2023-07-28T00:50:51;3.10;;;2.20;;
12956;SDS011;6543;48.836;10.092;2023-07-28T00:53:20;2.77;;;2.23;;
12956;SDS011;6543;48.836;10.092;2023-07-28T00:55:49;2.20;;;2.00;;
12956;SDS011;6543;48.836;10.092;2023-07-28T00:58:16;2.50;;;2.30;;
12956;SDS011;6543;48.836;10.092;2023-07-28T01:00:44;2.20;;;2.03;;
12956;SDS011;6543;48.836;10.092;2023-07-28T01:03:12;7.17;;;2.53;;
12956;SDS011;6543;48.836;10.092;2023-07-28T01:05:40;2.77;;;2.50;;
12956;SDS011;6543;48.836;10.092;2023-07-28T01:08:16;2.30;;;2.10;;
12956;SDS011;6543;48.836;10.092;2023-07-28T01:10:50;4.90;;;2.80;;
12956;SDS011;6543;48.836;10.092;2023-07-28T01:13:17;6.13;;;2.47;;
12956;SDS011;6543;48.836;10.092;2023-07-28T01:15:44;2.93;;;2.20;;
12956;SDS011;6543;48.836;10.092;2023-07-28T01:18:10;3.27;;;2.63;;
12956;SDS011;6543;48.836;10.092;2023-07-28T01:20:37;3.20;;;2.10;;
12956;SDS011;6543;48.836;10.092;2023-07-28T01:23:07;2.77;;;2.27;;
12956;SDS011;6543;48.836;10.092;2023-07-28T01:25:48;4.07;;;2.10;;
12956;SDS011;6543;48.836;10.092;2023-07-28T01:28:22;2.83;;;2.13;;
12956;SDS011;6543;48.836;10.092;2023-07-28T01:30:50;3.20;;;2.00;;
12956;SDS011;6543;48.836;10.092;2023-07-28T01:33:17;9.70;;;2.70;;
12956;SDS011;6543;48.836;10.092;2023-07-28T01:35:44;7.23;;;3.00;;
12956;SDS011;6543;48.836;10.092;2023-07-28T01:38:10;3.00;;;2.07;;
12956;SDS011;6543;48.836;10.092;2023-07-28T01:40:38;3.40;;;2.33;;
12956;SDS011;6543;48.836;10.092;2023-07-28T01:43:05;6.03;;;2.33;;
12956;SDS011;6543;48.836;10.092;2023-07-28T01:45:33;2.47;;;2.27;;
12956;SDS011;6543;48.836;10.092;2023-07-28T01:48:00;3.03;;;2.50;;
12956;SDS011;6543;48.836;10.092;2023-07-28T01:50:26;6.67;;;2.10;;
12956;SDS011;6543;48.836;10.092;2023-07-28T01:52:53;2.50;;;2.23;;
12956;SDS011;6543;48.836;10.092;2023-07-28T01:55:20;3.90;;;2.30;;
12956;SDS011;6543;48.836;10.092;2023-07-28T01:57:54;2.40;;;2.20;;
12956;SDS011;6543;48.836;10.092;2023-07-28T02:00:22;2.97;;;2.30;;
12956;SDS011;6543;48.836;10.092;2023-07-28T02:02:50;2.57;;;2.37;;
12956;SDS011;6543;48.836;10.092;2023-07-28T02:05:18;3.00;;;2.27;;
12956;SDS011;6543;48.836;10.092;2023-07-28T02:07:45;4.10;;;2.10;;
12956;SDS011;6543;48.836;10.092;2023-07-28T02:10:12;3.97;;;2.33;;
12956;SDS011;6543;48.836;10.092;2023-07-28T02:12:39;2.67;;;2.47;;
12956;SDS011;6543;48.836;10.092;2023-07-28T02:15:06;3.67;;;2.43;;
12956;SDS011;6543;48.836;10.092;2023-07-28T02:17:34;6.93;;;2.57;;
12956;SDS011;6543;48.836;10.092;2023-07-28T02:20:02;9.87;;;3.33;;
12956;SDS011;6543;48.836;10.092;2023-07-28T02:22:29;3.57;;;2.70;;
12956;SDS011;6543;48.836;10.092;2023-07-28T02:24:56;2.30;;;2.10;;
12956;SDS011;6543;48.836;10.092;2023-07-28T02:27:26;4.27;;;2.53;;
12956;SDS011;6543;48.836;10.092;2023-07-28T02:29:53;2.40;;;2.30;;
12956;SDS011;6543;48.836;10.092;2023-07-28T02:32:20;2.70;;;2.30;;
12956;SDS011;6543;48.836;10.092;2023-07-28T02:34:47;5.53;;;2.30;;
12956;SDS011;6543;48.836;10.092;2023-07-28T02:37:15;2.90;;;2.43;;
12956;SDS011;6543;48.836;10.092;2023-07-28T02:39:42;3.87;;;2.33;;
12956;SDS011;6543;48.836;10.092;2023-07-28T02:42:09;2.40;;;2.20;;
12956;SDS011;6543;48.836;10.092;2023-07-28T02:44:36;7.40;;;2.57;;
12956;SDS011;6543;48.836;10.092;2023-07-28T02:47:03;2.40;;;2.20;;
12956;SDS011;6543;48.836;10.092;2023-07-28T02:49:30;2.40;;;2.20;;
12956;SDS011;6543;48.836;10.092;2023-07-28T02:51:57;3.13;;;2.60;;
12956;SDS011;6543;48.836;10.092;2023-07-28T02:54:25;2.80;;;2.13;;
12956;SDS011;6543;48.836;10.092;2023-07-28T02:56:52;2.20;;;2.00;;
12956;SDS011;6543;48.836;10.092;2023-07-28T02:59:19;3.50;;;2.27;;
12956;SDS011;6543;48.836;10.092;2023-07-28T03:01:47;3.47;;;2.47;;
12956;SDS011;6543;48.836;10.092;2023-07-28T03:04:16;7.60;;;2.50;;
12956;SDS011;6543;48.836;10.092;2023-07-28T03:06:43;4.47;;;2.50;;
12956;SDS011;6543;48.836;10.092;2023-07-28T03:09:10;2.70;;;2.50;;
12956;SDS011;6543;48.836;10.092;2023-07-28T03:11:38;5.43;;;2.20;;
12956;SDS011;6543;48.836;10.092;2023-07-28T03:14:05;3.03;;;2.30;;
12956;SDS011;6543;48.836;10.092;2023-07-28T03:16:32;3.80;;;2.37;;
12956;SDS011;6543;48.836;10.092;2023-07-28T03:18:59;4.07;;;2.73;;
12956;SDS011;6543;48.836;10.092;2023-07-28T03:21:29;5.00;;;2.30;;
12956;SDS011;6543;48.836;10.092;2023-07-28T03:23:56;3.77;;;2.90;;
12956;SDS011;6543;48.836;10.092;2023-07-28T03:26:23;3.63;;;2.60;;
12956;SDS011;6543;48.836;10.092;2023-07-28T03:28:51;3.13;;;2.40;;
12956;SDS011;6543;48.836;10.092;2023-07-28T03:31:18;2.93;;;2.63;;
12956;SDS011;6543;48.836;10.092;2023-07-28T03:33:45;2.93;;;2.57;;
12956;SDS011;6543;48.836;10.092;2023-07-28T03:36:12;3.50;;;2.27;;
12956;SDS011;6543;48.836;10.092;2023-07-28T03:38:39;10.13;;;6.93;;
12956;SDS011;6543;48.836;10.092;2023-07-28T03:41:05;2.77;;;2.57;;
12956;SDS011;6543;48.836;10.092;2023-07-28T03:43:33;4.67;;;3.27;;
12956;SDS011;6543;48.836;10.092;2023-07-28T03:46:01;3.97;;;2.70;;
12956;SDS011;6543;48.836;10.092;2023-07-28T03:48:28;4.47;;;2.70;;
12956;SDS011;6543;48.836;10.092;2023-07-28T03:50:55;4.37;;;2.97;;
12956;SDS011;6543;48.836;10.092;2023-07-28T03:53:21;3.87;;;2.73;;
12956;SDS011;6543;48.836;10.092;2023-07-28T03:55:48;4.93;;;3.00;;
12956;SDS011;6543;48.836;10.092;2023-07-28T03:58:15;4.60;;;2.83;;
12956;SDS011;6543;48.836;10.092;2023-07-28T04:00:42;5.70;;;3.00;;
12956;SDS011;6543;48.836;10.092;2023-07-28T04:03:10;5.23;;;2.60;;
12956;SDS011;6543;48.836;10.092;2023-07-28T04:05:37;5.43;;;2.40;;
12956;SDS011;6543;48.836;10.092;2023-07-28T04:08:04;2.57;;;2.37;;
12956;SDS011;6543;48.836;10.092;2023-07-28T04:10:31;3.87;;;2.50;;
12956;SDS011;6543;48.836;10.092;2023-07-28T04:12:58;5.93;;;2.47;;
12956;SDS011;6543;48.836;10.092;2023-07-28T04:15:25;2.87;;;2.17;;
12956;SDS011;6543;48.836;10.092;2023-07-28T04:17:52;5.23;;;2.20;;
12956;SDS011;6543;48.836;10.092;2023-07-28T04:20:20;3.07;;;2.33;;
12956;SDS011;6543;48.836;10.092;2023-07-28T04:22:47;2.33;;;2.10;;
12956;SDS011;6543;48.836;10.092;2023-07-28T04:25:14;4.07;;;2.13;;
12956;SDS011;6543;48.836;10.092;2023-07-28T04:27:41;2.60;;;2.40;;
12956;SDS011;6543;48.836;10.092;2023-07-28T04:30:08;2.70;;;2.20;;
12956;SDS011;6543;48.836;10.092;2023-07-28T04:32:35;2.17;;;2.03;;
12956;SDS011;6543;48.836;10.092;2023-07-28T04:35:02;2.80;;;1.80;;
12956;SDS011;6543;48.836;10.092;2023-07-28T04:37:31;5.70;;;2.50;;
12956;SDS011;6543;48.836;10.092;2023-07-28T04:39:58;2.63;;;2.43;;
12956;SDS011;6543;48.836;10.092;2023-07-28T04:42:25;2.80;;;2.10;;
12956;SDS011;6543;48.836;10.092;2023-07-28T04:44:52;5.93;;;2.67;;
12956;SDS011;6543;48.836;10.092;2023-07-28T04:47:18;3.90;;;2.53;;
12956;SDS011;6543;48.836;10.092;2023-07-28T04:49:45;6.70;;;3.23;;
12956;SDS011;6543;48.836;10.092;2023-07-28T04:52:12;4.40;;;2.57;;
12956;SDS011;6543;48.836;10.092;2023-07-28T04:54:40;4.13;;;2.83;;
12956;SDS011;6543;48.836;10.092;2023-07-28T04:57:07;2.83;;;2.30;;
12956;SDS011;6543;48.836;10.092;2023-07-28T04:59:34;4.17;;;2.90;;
12956;SDS011;6543;48.836;10.092;2023-07-28T05:02:01;7.23;;;3.27;;
12956;SDS011;6543;48.836;10.092;2023-07-28T05:04:27;5.37;;;3.40;;
12956;SDS011;6543;48.836;10.092;2023-07-28T05:06:54;5.33;;;3.57;;
12956;SDS011;6543;48.836;10.092;2023-07-28T05:09:21;7.30;;;4.03;;
12956;SDS011;6543;48.836;10.092;2023-07-28T05:11:49;7.23;;;3.93;;
12956;SDS011;6543;48.836;10.092;2023-07-28T05:14:16;6.23;;;4.57;;
12956;SDS011;6543;48.836;10.092;2023-07-28T05:16:43;4.50;;;3.33;;
12956;SDS011;6543;48.836;10.092;2023-07-28T05:19:11;8.73;;;3.90;;
12956;SDS011;6543;48.836;10.092;2023-07-28T05:21:38;6.07;;;3.53;;
12956;SDS011;6543;48.836;10.092;2023-07-28T05:24:05;4.63;;;3.30;;
12956;SDS011;6543;48.836;10.092;2023-07-28T05:26:32;5.83;;;3.77;;
12956;SDS011;6543;48.836;10.092;2023-07-28T05:29:00;3.30;;;2.67;;
12956;SDS011;6543;48.836;10.092;2023-07-28T05:31:27;4.13;;;2.87;;
12956;SDS011;6543;48.836;10.092;2023-07-28T05:33:54;4.53;;;2.43;;
12956;SDS011;6543;48.836;10.092;2023-07-28T05:36:21;5.67;;;2.90;;
12956;SDS011;6543;48.836;10.092;2023-07-28T05:38:47;6.83;;;2.83;;
12956;SDS011;6543;48.836;10.092;2023-07-28T05:41:14;5.17;;;2.87;;
12956;SDS011;6543;48.836;10.092;2023-07-28T05:43:41;8.67;;;3.23;;
12956;SDS011;6543;48.836;10.092;2023-07-28T05:46:09;5.77;;;3.37;;
12956;SDS011;6543;48.836;10.092;2023-07-28T05:48:36;4.63;;;3.80;;
12956;SDS011;6543;48.836;10.092;2023-07-28T05:51:03;5.30;;;4.40;;
12956;SDS011;6543;48.836;10.092;2023-07-28T05:53:30;4.00;;;3.47;;
12956;SDS011;6543;48.836;10.092;2023-07-28T05:55:57;3.70;;;3.30;;
12956;SDS011;6543;48.836;10.092;2023-07-28T05:58:24;17.53;;;4.17;;
12956;SDS011;6543;48.836;10.092;2023-07-28T06:00:51;7.97;;;4.93;;
12956;SDS011;6543;48.836;10.092;2023-07-28T06:03:19;7.83;;;4.40;;
12956;SDS011;6543;48.836;10.092;2023-07-28T06:05:46;6.17;;;4.67;;
12956;SDS011;6543;48.836;10.092;2023-07-28T06:08:13;6.80;;;4.73;;
12956;SDS011;6543;48.836;10.092;2023-07-28T06:10:40;6.50;;;4.40;;
12956;SDS011;6543;48.836;10.092;2023-07-28T06:13:06;9.40;;;4.43;;
12956;SDS011;6543;48.836;10.092;2023-07-28T06:15:33;6.77;;;4.70;;
12956;SDS011;6543;48.836;10.092;2023-07-28T06:18:01;9.97;;;5.20;;
12956;SDS011;6543;48.836;10.092;2023-07-28T06:20:29;10.53;;;5.33;;
12956;SDS011;6543;48.836;10.092;2023-07-28T06:22:56;9.83;;;6.13;;
12956;SDS011;6543;48.836;10.092;2023-07-28T06:25:23;12.30;;;4.73;;
12956;SDS011;6543;48.836;10.092;2023-07-28T06:27:50;9.40;;;5.40;;
12956;SDS011;6543;48.836;10.092;2023-07-28T06:30:17;11.10;;;5.20;;
12956;SDS011;6543;48.836;10.092;2023-07-28T06:32:44;8.50;;;4.83;;
12956;SDS011;6543;48.836;10.092;2023-07-28T06:35:11;7.27;;;4.97;;
12956;SDS011;6543;48.836;10.092;2023-07-28T06:37:39;9.20;;;5.10;;
12956;SDS011;6543;48.836;10.092;2023-07-28T06:40:06;8.30;;;4.70;;
12956;SDS011;6543;48.836;10.092;2023-07-28T06:42:34;5.80;;;4.73;;
12956;SDS011;6543;48.836;10.092;2023-07-28T06:45:02;4.43;;;3.90;;
12956;SDS011;6543;48.836;10.092;2023-07-28T06:47:29;6.10;;;3.80;;
12956;SDS011;6543;48.836;10.092;2023-07-28T06:49:56;4.53;;;4.13;;
12956;SDS011;6543;48.836;10.092;2023-07-28T06:52:23;6.60;;;5.27;;
12956;SDS011;6543;48.836;10.092;2023-07-28T06:54:51;5.33;;;4.67;;
12956;SDS011;6543;48.836;10.092;2023-07-28T06:57:19;8.63;;;5.70;;
12956;SDS011;6543;48.836;10.092;2023-07-28T06:59:46;7.60;;;4.43;;
12956;SDS011;6543;48.836;10.092;2023-07-28T07:02:13;5.70;;;3.87;;
12956;SDS011;6543;48.836;10.092;2023-07-28T07:04:40;5.40;;;3.50;;
12956;SDS011;6543;48.836;10.092;2023-07-28T07:07:07;4.77;;;3.70;;
12956;SDS011;6543;48.836;10.092;2023-07-28T07:09:34;6.43;;;3.57;;
12956;SDS011;6543;48.836;10.092;2023-07-28T07:12:03;4.73;;;2.63;;
12956;SDS011;6543;48.836;10.092;2023-07-28T07:14:30;3.30;;;3.00;;
12956;SDS011;6543;48.836;10.092;2023-07-28T07:16:58;5.43;;;2.63;;
12956;SDS011;6543;48.836;10.092;2023-07-28T07:19:26;2.80;;;2.60;;
12956;SDS011;6543;48.836;10.092;2023-07-28T07:21:53;2.97;;;2.77;;
12956;SDS011;6543;48.836;10.092;2023-07-28T07:24:20;2.50;;;2.20;;
12956;SDS011;6543;48.836;10.092;2023-07-28T07:26:47;2.93;;;2.63;;
12956;SDS011;6543;48.836;10.092;2023-07-28T07:29:17;5.27;;;2.83;;
12956;SDS011;6543;48.836;10.092;2023-07-28T07:31:44;3.10;;;2.80;;
12956;SDS011;6543;48.836;10.092;2023-07-28T07:34:10;3.33;;;2.60;;
12956;SDS011;6543;48.836;10.092;2023-07-28T07:36:37;2.97;;;2.77;;
12956;SDS011;6543;48.836;10.092;2023-07-28T07:39:05;5.40;;;3.33;;
12956;SDS011;6543;48.836;10.092;2023-07-28T07:41:32;5.87;;;3.03;;
12956;SDS011;6543;48.836;10.092;2023-07-28T07:43:59;4.47;;;3.00;;
12956;SDS011;6543;48.836;10.092;2023-07-28T07:46:28;4.27;;;2.63;;
12956;SDS011;6543;48.836;10.092;2023-07-28T07:48:56;4.40;;;3.07;;
12956;SDS011;6543;48.836;10.092;2023-07-28T07:51:23;3.40;;;3.10;;
12956;SDS011;6543;48.836;10.092;2023-07-28T07:53:49;6.23;;;2.70;;
12956;SDS011;6543;48.836;10.092;2023-07-28T07:56:16;3.80;;;3.13;;
12956;SDS011;6543;48.836;10.092;2023-07-28T07:58:44;3.20;;;2.90;;
12956;SDS011;6543;48.836;10.092;2023-07-28T08:01:11;4.87;;;3.47;;
12956;SDS011;6543;48.836;10.092;2023-07-28T08:03:39;3.33;;;3.13;;
12956;SDS011;6543;48.836;10.092;2023-07-28T08:06:06;4.23;;;3.73;;
12956;SDS011;6543;48.836;10.092;2023-07-28T08:08:34;3.30;;;2.90;;
12956;SDS011;6543;48.836;10.092;2023-07-28T08:11:01;4.90;;;3.30;;
12956;SDS011;6543;48.836;10.092;2023-07-28T08:13:29;3.50;;;3.20;;
12956;SDS011;6543;48.836;10.092;2023-07-28T08:15:56;3.03;;;2.83;;
12956;SDS011;6543;48.836;10.092;2023-07-28T08:18:23;2.80;;;2.60;;
12956;SDS011;6543;48.836;10.092;2023-07-28T08:20:51;2.95;;;2.63;;
12956;SDS011;6543;48.836;10.092;2023-07-28T08:23:18;3.13;;;2.90;;
12956;SDS011;6543;48.836;10.092;2023-07-28T08:25:45;2.50;;;2.40;;
12956;SDS011;6543;48.836;10.092;2023-07-28T08:28:12;2.53;;;2.33;;
12956;SDS011;6543;48.836;10.092;2023-07-28T08:30:39;2.67;;;2.47;;
12956;SDS011;6543;48.836;10.092;2023-07-28T08:33:05;5.10;;;2.80;;
12956;SDS011;6543;48.836;10.092;2023-07-28T08:35:32;2.42;;;2.22;;
12956;SDS011;6543;48.836;10.092;2023-07-28T08:38:00;2.97;;;1.98;;
12956;SDS011;6543;48.836;10.092;2023-07-28T08:40:28;2.75;;;2.17;;
12956;SDS011;6543;48.836;10.092;2023-07-28T08:42:55;2.22;;;2.13;;
12956;SDS011;6543;48.836;10.092;2023-07-28T08:45:22;3.75;;;2.30;;
12956;SDS011;6543;48.836;10.092;2023-07-28T08:47:49;2.20;;;2.00;;
12956;SDS011;6543;48.836;10.092;2023-07-28T08:50:16;7.30;;;2.28;;
12956;SDS011;6543;48.836;10.092;2023-07-28T08:52:43;2.20;;;2.00;;
12956;SDS011;6543;48.836;10.092;2023-07-28T08:55:12;2.40;;;2.20;;
12956;SDS011;6543;48.836;10.092;2023-07-28T08:57:39;3.60;;;2.28;;
12956;SDS011;6543;48.836;10.092;2023-07-28T09:00:06;3.05;;;2.28;;
12956;SDS011;6543;48.836;10.092;2023-07-28T09:02:36;2.58;;;2.20;;
12956;SDS011;6543;48.836;10.092;2023-07-28T09:05:03;2.92;;;2.70;;
12956;SDS011;6543;48.836;10.092;2023-07-28T09:07:33;2.70;;;2.50;;
12956;SDS011;6543;48.836;10.092;2023-07-28T09:10:01;4.47;;;2.90;;
12956;SDS011;6543;48.836;10.092;2023-07-28T09:12:32;3.67;;;3.30;;
12956;SDS011;6543;48.836;10.092;2023-07-28T09:14:59;4.03;;;2.80;;
12956;SDS011;6543;48.836;10.092;2023-07-28T09:17:26;3.20;;;2.92;;
12956;SDS011;6543;48.836;10.092;2023-07-28T09:19:53;3.05;;;2.75;;
12956;SDS011;6543;48.836;10.092;2023-07-28T09:22:21;2.75;;;2.55;;
12956;SDS011;6543;48.836;10.092;2023-07-28T09:24:49;4.93;;;2.45;;
12956;SDS011;6543;48.836;10.092;2023-07-28T09:27:20;3.33;;;3.03;;
12956;SDS011;6543;48.836;10.092;2023-07-28T09:29:50;4.90;;;3.13;;
12956;SDS011;6543;48.836;10.092;2023-07-28T09:32:25;2.83;;;2.63;;
12956;SDS011;6543;48.836;10.092;2023-07-28T09:37:38;3.50;;;3.20;;
12956;SDS011;6543;48.836;10.092;2023-07-28T09:40:07;3.17;;;2.95;;
12956;SDS011;6543;48.836;10.092;2023-07-28T09:42:36;3.97;;;2.70;;
12956;SDS011;6543;48.836;10.092;2023-07-28T09:45:06;3.35;;;2.95;;
12956;SDS011;6543;48.836;10.092;2023-07-28T09:47:35;3.60;;;2.73;;
12956;SDS011;6543;48.836;10.092;2023-07-28T09:50:03;4.63;;;2.70;;
12956;SDS011;6543;48.836;10.092;2023-07-28T09:52:31;3.83;;;2.53;;
12956;SDS011;6543;48.836;10.092;2023-07-28T09:55:01;2.95;;;2.53;;
12956;SDS011;6543;48.836;10.092;2023-07-28T09:57:33;4.03;;;2.88;;
12956;SDS011;6543;48.836;10.092;2023-07-28T10:00:07;3.15;;;2.60;;
12956;SDS011;6543;48.836;10.092;2023-07-28T10:02:36;2.67;;;2.47;;
12956;SDS011;6543;48.836;10.092;2023-07-28T10:05:04;2.50;;;2.30;;
12956;SDS011;6543;48.836;10.092;2023-07-28T10:07:32;5.15;;;2.50;;
12956;SDS011;6543;48.836;10.092;2023-07-28T10:10:02;2.45;;;2.25;;
12956;SDS011;6543;48.836;10.092;2023-07-28T10:12:34;2.70;;;2.47;;
12956;SDS011;6543;48.836;10.092;2023-07-28T10:15:11;2.80;;;2.60;;
12956;SDS011;6543;48.836;10.092;2023-07-28T10:17:42;4.43;;;2.63;;
12956;SDS011;6543;48.836;10.092;2023-07-28T10:23:02;2.53;;;2.25;;
12956;SDS011;6543;48.836;10.092;2023-07-28T10:25:31;3.25;;;2.45;;
12956;SDS011;6543;48.836;10.092;2023-07-28T10:28:00;4.43;;;2.58;;
12956;SDS011;6543;48.836;10.092;2023-07-28T10:30:30;3.03;;;2.50;;
12956;SDS011;6543;48.836;10.092;2023-07-28T10:33:05;2.47;;;2.38;;
12956;SDS011;6543;48.836;10.092;2023-07-28T10:35:32;3.17;;;2.70;;
12956;SDS011;6543;48.836;10.092;2023-07-28T10:41:10;4.50;;;2.25;;
12956;SDS011;6543;48.836;10.092;2023-07-28T10:43:38;3.42;;;2.30;;
12956;SDS011;6543;48.836;10.092;2023-07-28T10:46:06;3.65;;;2.10;;
12956;SDS011;6543;48.836;10.092;2023-07-28T10:48:35;2.65;;;2.42;;
12956;SDS011;6543;48.836;10.092;2023-07-28T10:51:02;2.10;;;1.92;;
12956;SDS011;6543;48.836;10.092;2023-07-28T10:53:31;2.05;;;1.95;;
12956;SDS011;6543;48.836;10.092;2023-07-28T10:55:58;3.90;;;2.35;;
12956;SDS011;6543;48.836;10.092;2023-07-28T10:58:27;2.15;;;2.05;;
12956;SDS011;6543;48.836;10.092;2023-07-28T11:00:54;2.00;;;1.65;;
12956;SDS011;6543;48.836;10.092;2023-07-28T11:03:22;2.85;;;2.03;;
12956;SDS011;6543;48.836;10.092;2023-07-28T11:05:49;2.00;;;1.90;;
12956;SDS011;6543;48.836;10.092;2023-07-28T11:08:16;2.78;;;1.95;;
12956;SDS011;6543;48.836;10.092;2023-07-28T11:10:44;1.50;;;1.40;;
12956;SDS011;6543;48.836;10.092;2023-07-28T11:13:11;1.80;;;1.70;;
12956;SDS011;6543;48.836;10.092;2023-07-28T11:15:39;1.60;;;1.50;;
12956;SDS011;6543;48.836;10.092;2023-07-28T11:18:06;1.98;;;1.75;;
12956;SDS011;6543;48.836;10.092;2023-07-28T11:20:36;3.08;;;1.38;;
12956;SDS011;6543;48.836;10.092;2023-07-28T11:23:03;1.67;;;1.45;;
12956;SDS011;6543;48.836;10.092;2023-07-28T11:25:33;2.03;;;1.80;;
12956;SDS011;6543;48.836;10.092;2023-07-28T11:28:01;1.85;;;1.75;;
12956;SDS011;6543;48.836;10.092;2023-07-28T11:30:30;2.17;;;1.75;;
12956;SDS011;6543;48.836;10.092;2023-07-28T11:32:59;2.00;;;1.80;;
12956;SDS011;6543;48.836;10.092;2023-07-28T11:35:26;2.05;;;1.77;;
12956;SDS011;6543;48.836;10.092;2023-07-28T11:37:54;3.33;;;2.15;;
12956;SDS011;6543;48.836;10.092;2023-07-28T11:40:22;1.70;;;1.60;;
12956;SDS011;6543;48.836;10.092;2023-07-28T11:42:51;4.72;;;1.77;;
12956;SDS011;6543;48.836;10.092;2023-07-28T11:45:20;1.75;;;1.60;;
12956;SDS011;6543;48.836;10.092;2023-07-28T11:47:52;4.22;;;1.60;;
12956;SDS011;6543;48.836;10.092;2023-07-28T11:50:22;2.35;;;2.13;;
12956;SDS011;6543;48.836;10.092;2023-07-28T11:52:50;3.20;;;2.08;;
12956;SDS011;6543;48.836;10.092;2023-07-28T11:55:18;2.13;;;2.03;;
12956;SDS011;6543;48.836;10.092;2023-07-28T11:57:47;2.05;;;1.95;;
12956;SDS011;6543;48.836;10.092;2023-07-28T12:00:14;2.88;;;2.00;;
12956;SDS011;6543;48.836;10.092;2023-07-28T12:02:43;2.03;;;1.60;;
12956;SDS011;6543;48.836;10.092;2023-07-28T12:05:14;1.75;;;1.65;;
12956;SDS011;6543;48.836;10.092;2023-07-28T12:07:46;2.13;;;1.70;;
12956;SDS011;6543;48.836;10.092;2023-07-28T12:10:13;1.90;;;1.80;;
12956;SDS011;6543;48.836;10.092;2023-07-28T12:12:42;1.73;;;1.63;;
12956;SDS011;6543;48.836;10.092;2023-07-28T12:15:23;1.52;;;1.25;;
12956;SDS011;6543;48.836;10.092;2023-07-28T12:18:04;1.63;;;1.35;;
12956;SDS011;6543;48.836;10.092;2023-07-28T12:20:34;1.45;;;1.35;;
12956;SDS011;6543;48.836;10.092;2023-07-28T12:23:03;1.10;;;1.00;;
12956;SDS011;6543;48.836;10.092;2023-07-28T12:25:30;1.65;;;1.40;;
12956;SDS011;6543;48.836;10.092;2023-07-28T12:27:58;4.18;;;1.75;;
12956;SDS011;6543;48.836;10.092;2023-07-28T12:30:26;1.60;;;1.50;;
12956;SDS011;6543;48.836;10.092;2023-07-28T12:32:52;1.25;;;1.25;;
12956;SDS011;6543;48.836;10.092;2023-07-28T12:35:19;1.52;;;1.42;;
12956;SDS011;6543;48.836;10.092;2023-07-28T12:37:48;2.88;;;1.40;;
12956;SDS011;6543;48.836;10.092;2023-07-28T12:40:15;2.72;;;1.20;;
12956;SDS011;6543;48.836;10.092;2023-07-28T12:42:42;1.48;;;1.38;;
12956;SDS011;6543;48.836;10.092;2023-07-28T12:45:10;2.30;;;1.80;;
12956;SDS011;6543;48.836;10.092;2023-07-28T12:47:38;3.67;;;1.20;;
12956;SDS011;6543;48.836;10.092;2023-07-28T12:50:05;1.55;;;1.45;;
12956;SDS011;6543;48.836;10.092;2023-07-28T12:52:32;2.65;;;1.25;;
12956;SDS011;6543;48.836;10.092;2023-07-28T12:54:59;1.40;;;1.30;;
12956;SDS011;6543;48.836;10.092;2023-07-28T12:57:26;1.55;;;1.30;;
12956;SDS011;6543;48.836;10.092;2023-07-28T12:59:53;1.30;;;1.20;;
12956;SDS011;6543;48.836;10.092;2023-07-28T13:02:21;1.30;;;1.20;;
12956;SDS011;6543;48.836;10.092;2023-07-28T13:04:48;1.60;;;1.27;;
12956;SDS011;6543;48.836;10.092;2023-07-28T13:07:15;1.50;;;1.20;;
12956;SDS011;6543;48.836;10.092;2023-07-28T13:09:43;1.85;;;1.45;;
12956;SDS011;6543;48.836;10.092;2023-07-28T13:12:10;1.65;;;1.30;;
12956;SDS011;6543;48.836;10.092;2023-07-28T13:14:37;1.30;;;1.20;;
12956;SDS011;6543;48.836;10.092;2023-07-28T13:17:04;1.48;;;1.38;;
12956;SDS011;6543;48.836;10.092;2023-07-28T13:19:32;3.13;;;1.55;;
12956;SDS011;6543;48.836;10.092;2023-07-28T13:21:59;1.60;;;1.50;;
12956;SDS011;6543;48.836;10.092;2023-07-28T13:24:26;1.75;;;1.63;;
12956;SDS011;6543;48.836;10.092;2023-07-28T13:26:53;1.98;;;1.70;;
12956;SDS011;6543;48.836;10.092;2023-07-28T13:29:20;1.40;;;1.30;;
12956;SDS011;6543;48.836;10.092;2023-07-28T13:31:46;1.50;;;1.40;;
12956;SDS011;6543;48.836;10.092;2023-07-28T13:34:13;1.40;;;1.23;;
12956;SDS011;6543;48.836;10.092;2023-07-28T13:36:41;4.57;;;1.67;;
12956;SDS011;6543;48.836;10.092;2023-07-28T13:39:09;3.65;;;3.08;;
12956;SDS011;6543;48.836;10.092;2023-07-28T13:41:36;1.88;;;1.77;;
12956;SDS011;6543;48.836;10.092;2023-07-28T13:44:03;1.67;;;1.58;;
12956;SDS011;6543;48.836;10.092;2023-07-28T13:46:30;4.93;;;2.03;;
12956;SDS011;6543;48.836;10.092;2023-07-28T13:48:57;2.72;;;2.00;;
12956;SDS011;6543;48.836;10.092;2023-07-28T13:51:24;2.33;;;1.70;;
12956;SDS011;6543;48.836;10.092;2023-07-28T13:53:52;2.58;;;1.50;;
12956;SDS011;6543;48.836;10.092;2023-07-28T13:56:19;3.38;;;2.30;;
12956;SDS011;6543;48.836;10.092;2023-07-28T13:58:46;2.63;;;1.77;;
12956;SDS011;6543;48.836;10.092;2023-07-28T14:01:13;3.10;;;2.47;;
12956;SDS011;6543;48.836;10.092;2023-07-28T14:03:40;2.55;;;2.00;;
12956;SDS011;6543;48.836;10.092;2023-07-28T14:06:07;2.13;;;1.90;;
12956;SDS011;6543;48.836;10.092;2023-07-28T14:08:34;2.72;;;1.95;;
12956;SDS011;6543;48.836;10.092;2023-07-28T14:11:02;1.60;;;1.50;;
12956;SDS011;6543;48.836;10.092;2023-07-28T14:13:29;3.00;;;1.25;;
12956;SDS011;6543;48.836;10.092;2023-07-28T14:15:57;4.30;;;1.85;;
12956;SDS011;6543;48.836;10.092;2023-07-28T14:18:24;2.38;;;2.17;;
12956;SDS011;6543;48.836;10.092;2023-07-28T14:20:51;2.15;;;1.92;;
12956;SDS011;6543;48.836;10.092;2023-07-28T14:23:21;1.73;;;1.60;;
12956;SDS011;6543;48.836;10.092;2023-07-28T14:25:49;3.58;;;2.28;;
12956;SDS011;6543;48.836;10.092;2023-07-28T14:28:17;2.10;;;1.90;;
12956;SDS011;6543;48.836;10.092;2023-07-28T14:30:45;3.03;;;2.20;;
12956;SDS011;6543;48.836;10.092;2023-07-28T14:33:12;2.17;;;2.03;;
12956;SDS011;6543;48.836;10.092;2023-07-28T14:35:40;2.25;;;2.05;;
12956;SDS011;6543;48.836;10.092;2023-07-28T14:38:07;2.30;;;2.10;;
12956;SDS011;6543;48.836;10.092;2023-07-28T14:40:34;4.53;;;2.20;;
12956;SDS011;6543;48.836;10.092;2023-07-28T14:43:01;3.53;;;3.25;;
12956;SDS011;6543;48.836;10.092;2023-07-28T14:45:30;3.95;;;3.65;;
12956;SDS011;6543;48.836;10.092;2023-07-28T14:47:57;6.15;;;5.00;;
12956;SDS011;6543;48.836;10.092;2023-07-28T14:50:25;4.80;;;3.70;;
12956;SDS011;6543;48.836;10.092;2023-07-28T14:52:52;3.28;;;2.60;;
12956;SDS011;6543;48.836;10.092;2023-07-28T14:55:19;4.15;;;2.83;;
12956;SDS011;6543;48.836;10.092;2023-07-28T14:57:46;4.70;;;4.20;;
12956;SDS011;6543;48.836;10.092;2023-07-28T15:00:13;3.40;;;3.20;;